Time;durP1;ratioP1;P1;durP2;ratioP2;P2;SDS_P1;SDS_P2;PMS_P1;PMS_P2;Temp;Humidity;BMP_temperature;BMP_pressure;BME280_temperature;BME280_humidity;BME280_pressure;Samples;Min_cycle;Max_cycle;Signal;HPM_P1;HPM_P2
2023/06/10 00:01:38;;;;;;;7.82;5.07;;;20.10;50.50;;;;;;5034339;28;20073;-67
2023/06/10 00:04:04;;;;;;;9.10;4.75;;;20.00;50.50;;;;;;5021421;28;20520;-67
2023/06/10 00:06:35;;;;;;;6.63;4.50;;;20.00;50.60;;;;;;5018917;28;20412;-67
2023/06/10 00:09:14;;;;;;;8.98;4.78;;;19.90;50.60;;;;;;5035290;28;20045;-67
2023/06/10 00:11:40;;;;;;;7.80;4.63;;;19.90;50.80;;;;;;5031578;28;20106;-67
2023/06/10 00:14:06;;;;;;;6.53;4.32;;;19.80;50.90;;;;;;5034058;28;20049;-67
2023/06/10 00:16:32;;;;;;;6.07;4.25;;;19.80;50.90;;;;;;5033679;28;20057;-67
2023/06/10 00:19:03;;;;;;;7.07;4.22;;;19.70;51.00;;;;;;5050372;28;20591;-67
2023/06/10 00:21:30;;;;;;;8.38;4.57;;;19.70;51.20;;;;;;5022772;28;20060;-67
2023/06/10 00:23:56;;;;;;;7.90;4.25;;;19.60;51.20;;;;;;5035082;28;20037;-66
2023/06/10 00:26:25;;;;;;;7.13;4.38;;;19.60;51.40;;;;;;5031554;28;20052;-66
2023/06/10 00:28:52;;;;;;;6.65;4.38;;;19.60;51.50;;;;;;5013931;28;20050;-65
2023/06/10 00:31:18;;;;;;;5.75;4.30;;;19.60;51.60;;;;;;5019902;28;20077;-66
2023/06/10 00:33:43;;;;;;;7.65;4.05;;;19.60;51.60;;;;;;5034331;28;20154;-65
2023/06/10 00:36:09;;;;;;;7.35;4.65;;;19.60;51.60;;;;;;5020812;28;20058;-66
2023/06/10 00:38:35;;;;;;;6.10;4.00;;;19.50;51.60;;;;;;5013859;28;20041;-66
2023/06/10 00:41:01;;;;;;;5.75;3.88;;;19.50;51.70;;;;;;5016048;28;20314;-66
2023/06/10 00:43:26;;;;;;;7.75;4.88;;;19.50;51.70;;;;;;5032794;28;20045;-66
2023/06/10 00:45:52;;;;;;;8.98;4.28;;;19.50;51.70;;;;;;5033378;28;20453;-66
2023/06/10 00:48:19;;;;;;;7.18;4.57;;;19.50;51.70;;;;;;5050399;28;20547;-66
2023/06/10 00:50:46;;;;;;;4.90;4.03;;;19.50;51.70;;;;;;5034358;28;20049;-66
2023/06/10 00:53:12;;;;;;;5.53;4.03;;;19.50;51.70;;;;;;5019213;28;20049;-66
2023/06/10 00:55:38;;;;;;;6.85;4.07;;;19.40;51.70;;;;;;5024586;28;20481;-66
2023/06/10 00:58:04;;;;;;;6.55;4.13;;;19.40;51.80;;;;;;5013762;28;20041;-66
2023/06/10 01:00:30;;;;;;;7.18;5.07;;;19.40;51.80;;;;;;5014414;28;20469;-66
2023/06/10 01:02:56;;;;;;;7.13;4.70;;;19.40;51.90;;;;;;5030383;28;20044;-66
2023/06/10 01:05:23;;;;;;;7.10;5.38;;;19.30;51.90;;;;;;5034405;28;20049;-66
2023/06/10 01:08:07;;;;;;;6.55;4.45;;;19.40;52.00;;;;;;5032082;28;20055;-66
2023/06/10 01:10:43;;;;;;;6.57;4.68;;;19.30;52.00;;;;;;5027141;28;20053;-66
2023/06/10 01:13:13;;;;;;;8.10;4.95;;;19.30;52.10;;;;;;5032430;28;20052;-66
2023/06/10 01:15:39;;;;;;;7.03;4.40;;;19.30;52.20;;;;;;5049491;28;20053;-66
2023/06/10 01:18:10;;;;;;;5.63;3.92;;;19.20;52.20;;;;;;5030128;28;20059;-66
2023/06/10 01:20:41;;;;;;;6.68;4.50;;;19.30;52.30;;;;;;5023563;28;20397;-66
2023/06/10 01:23:07;;;;;;;6.75;4.82;;;19.20;52.30;;;;;;5033058;28;20128;-66
2023/06/10 01:25:37;;;;;;;6.88;4.78;;;19.20;52.40;;;;;;5033305;28;20384;-66
2023/06/10 01:28:28;;;;;;;7.68;5.43;;;19.20;52.50;;;;;;5032391;28;20041;-65
2023/06/10 01:31:11;;;;;;;7.75;4.82;;;19.20;52.50;;;;;;5012911;28;20050;-66
2023/06/10 01:33:41;;;;;;;7.90;4.55;;;19.20;52.70;;;;;;5024255;28;20045;-66
2023/06/10 01:36:07;;;;;;;6.57;3.90;;;19.10;52.70;;;;;;5032130;28;20096;-66
2023/06/10 01:38:39;;;;;;;6.85;5.00;;;19.10;52.70;;;;;;5044668;28;20066;-66
2023/06/10 01:41:06;;;;;;;7.20;4.70;;;19.10;52.80;;;;;;5012643;28;20493;-66
2023/06/10 01:43:35;;;;;;;6.55;3.97;;;19.10;52.80;;;;;;5016132;28;20048;-66
2023/06/10 01:46:01;;;;;;;7.22;4.32;;;19.10;52.80;;;;;;5013836;28;20060;-66
2023/06/10 01:48:27;;;;;;;9.07;5.65;;;19.10;52.80;;;;;;5031985;28;20045;-66
2023/06/10 01:50:52;;;;;;;7.05;4.78;;;19.00;52.90;;;;;;5030575;28;20041;-65
2023/06/10 01:53:18;;;;;;;5.20;3.95;;;19.00;52.90;;;;;;5016039;28;20049;-65
2023/06/10 01:55:44;;;;;;;7.38;4.25;;;19.00;52.90;;;;;;5013915;28;20565;-65
2023/06/10 01:58:10;;;;;;;6.57;4.03;;;19.00;52.90;;;;;;5012256;28;20069;-66
2023/06/10 02:00:36;;;;;;;7.22;4.07;;;19.00;52.80;;;;;;5014736;28;20045;-66
2023/06/10 02:03:01;;;;;;;5.50;4.13;;;19.00;52.80;;;;;;5026942;28;20481;-66
2023/06/10 02:05:27;;;;;;;6.57;4.38;;;19.00;52.90;;;;;;5028390;28;20095;-66
2023/06/10 02:07:53;;;;;;;6.40;4.65;;;19.00;52.90;;;;;;5013275;28;20045;-66
2023/06/10 02:10:19;;;;;;;5.32;4.57;;;19.00;52.90;;;;;;5027888;28;20042;-66
2023/06/10 02:12:44;;;;;;;8.02;4.78;;;19.00;53.00;;;;;;5033232;28;20041;-66
2023/06/10 02:15:10;;;;;;;5.45;4.38;;;19.00;53.00;;;;;;5027324;28;20370;-66
2023/06/10 02:17:36;;;;;;;7.85;5.10;;;19.00;53.00;;;;;;5025182;28;20038;-66
2023/06/10 02:20:04;;;;;;;5.97;5.10;;;19.00;53.10;;;;;;5012076;28;20489;-66
2023/06/10 02:22:30;;;;;;;11.10;5.40;;;19.00;53.20;;;;;;5012029;28;20512;-66
2023/06/10 02:24:55;;;;;;;6.80;4.78;;;18.90;53.20;;;;;;5014336;28;20397;-67
2023/06/10 02:27:21;;;;;;;7.18;4.70;;;18.90;53.20;;;;;;5026318;28;20053;-67
2023/06/10 02:29:47;;;;;;;6.47;4.95;;;18.90;53.20;;;;;;5031560;28;20057;-69
2023/06/10 02:32:13;;;;;;;7.50;4.65;;;18.90;53.30;;;;;;5034504;28;20053;-69
2023/06/10 02:34:38;;;;;;;5.18;4.35;;;18.80;53.30;;;;;;5012915;28;20042;-69
2023/06/10 02:37:04;;;;;;;6.72;4.72;;;18.80;53.30;;;;;;5006587;28;20056;-68
2023/06/10 02:39:30;;;;;;;8.10;5.50;;;18.80;53.50;;;;;;5031288;28;20046;-68
2023/06/10 02:41:56;;;;;;;9.57;5.72;;;18.70;53.50;;;;;;5022489;28;20046;-68
2023/06/10 02:44:21;;;;;;;10.57;5.72;;;18.70;53.60;;;;;;5012026;28;20073;-68
2023/06/10 02:46:47;;;;;;;6.35;4.60;;;18.60;53.60;;;;;;5021998;28;20469;-68
2023/06/10 02:49:13;;;;;;;7.65;4.97;;;18.60;53.70;;;;;;5011827;28;20100;-68
2023/06/10 02:51:39;;;;;;;6.25;4.25;;;18.50;53.70;;;;;;5012929;28;20042;-69
2023/06/10 02:54:05;;;;;;;8.38;5.45;;;18.50;53.80;;;;;;4993337;28;20126;-69
2023/06/10 02:56:31;;;;;;;8.70;5.55;;;18.50;53.90;;;;;;5004900;28;20038;-69
2023/06/10 02:58:57;;;;;;;6.38;4.85;;;18.40;54.00;;;;;;5015700;28;20046;-69
2023/06/10 03:01:23;;;;;;;6.45;4.53;;;18.40;54.00;;;;;;5026529;28;20448;-68
2023/06/10 03:03:50;;;;;;;12.15;5.85;;;18.40;54.20;;;;;;5035145;28;20033;-68
2023/06/10 03:06:16;;;;;;;7.35;4.72;;;18.40;54.20;;;;;;5027432;28;20076;-68
2023/06/10 03:08:42;;;;;;;8.23;5.40;;;18.30;54.20;;;;;;5015500;28;20101;-68
2023/06/10 03:11:08;;;;;;;7.28;4.88;;;18.30;54.40;;;;;;5032839;28;20056;-68
2023/06/10 03:13:33;;;;;;;7.00;4.72;;;18.20;54.40;;;;;;5045720;28;20607;-68
2023/06/10 03:16:00;;;;;;;9.40;5.05;;;18.10;54.40;;;;;;5015336;28;20077;-68
2023/06/10 03:18:27;;;;;;;8.00;4.90;;;18.10;54.50;;;;;;5015340;28;20120;-68
2023/06/10 03:20:53;;;;;;;5.70;4.35;;;18.10;54.70;;;;;;5015318;28;20046;-68
2023/06/10 03:23:19;;;;;;;8.15;5.13;;;18.10;54.80;;;;;;5029757;28;20044;-69
2023/06/10 03:25:45;;;;;;;10.68;5.28;;;18.00;54.80;;;;;;5016574;28;20038;-69
2023/06/10 03:28:11;;;;;;;8.23;5.00;;;18.00;54.90;;;;;;5029061;28;20115;-69
2023/06/10 03:30:37;;;;;;;7.88;5.05;;;17.90;55.00;;;;;;5036185;28;20484;-69
2023/06/10 03:33:02;;;;;;;7.35;5.30;;;17.90;55.10;;;;;;5034899;28;20044;-69
2023/06/10 03:35:29;;;;;;;7.03;4.88;;;17.90;55.30;;;;;;5017729;28;20497;-69
2023/06/10 03:37:55;;;;;;;9.82;5.00;;;17.80;55.30;;;;;;5035043;28;20056;-69
2023/06/10 03:40:21;;;;;;;8.70;4.82;;;17.70;55.50;;;;;;5033817;28;20454;-69
2023/06/10 03:42:47;;;;;;;8.90;4.82;;;17.70;55.60;;;;;;5015887;28;20053;-69
2023/06/10 03:45:12;;;;;;;10.25;5.70;;;17.70;55.80;;;;;;5014940;28;20038;-69
2023/06/10 03:47:40;;;;;;;10.13;5.50;;;17.60;56.00;;;;;;5016150;28;20042;-69
2023/06/10 03:50:08;;;;;;;7.20;5.15;;;17.60;56.10;;;;;;5023286;28;20046;-69
2023/06/10 03:52:34;;;;;;;9.90;5.57;;;17.50;56.10;;;;;;5032814;28;20098;-68
2023/06/10 03:55:00;;;;;;;8.82;5.47;;;17.50;56.30;;;;;;5034723;28;20048;-68
2023/06/10 03:57:26;;;;;;;9.57;4.85;;;17.40;56.40;;;;;;5032703;28;20485;-68
2023/06/10 03:59:52;;;;;;;11.18;5.80;;;17.40;57.00;;;;;;5031981;28;20119;-68
2023/06/10 04:02:17;;;;;;;5.82;4.65;;;17.30;56.70;;;;;;5021223;28;20044;-68
2023/06/10 04:04:43;;;;;;;8.55;5.43;;;17.30;56.90;;;;;;5019929;28;20172;-68
2023/06/10 04:07:09;;;;;;;9.55;5.20;;;17.30;57.10;;;;;;5015908;28;20121;-68
2023/06/10 04:09:38;;;;;;;6.90;4.72;;;17.20;57.20;;;;;;5013594;28;20176;-68
2023/06/10 04:12:08;;;;;;;7.38;4.90;;;17.20;57.40;;;;;;5026470;28;20102;-68
2023/06/10 04:14:36;;;;;;;10.50;5.38;;;17.20;57.60;;;;;;5049112;28;20151;-68
2023/06/10 04:17:08;;;;;;;7.60;4.82;;;17.10;58.20;;;;;;5033565;28;20049;-68
2023/06/10 04:19:33;;;;;;;10.05;5.47;;;17.00;57.90;;;;;;5014512;28;20046;-68
2023/06/10 04:22:02;;;;;;;10.50;4.72;;;17.00;58.20;;;;;;5024092;28;20045;-68
2023/06/10 04:24:28;;;;;;;9.60;5.15;;;17.00;58.40;;;;;;5035201;28;20036;-68
2023/06/10 04:26:53;;;;;;;8.18;5.15;;;16.90;58.60;;;;;;5023863;28;20457;-68
2023/06/10 04:29:19;;;;;;;7.93;4.80;;;16.90;58.80;;;;;;5029089;28;20129;-68
2023/06/10 04:31:46;;;;;;;8.68;5.28;;;16.90;58.90;;;;;;5033292;28;20052;-68
2023/06/10 04:34:12;;;;;;;9.38;5.25;;;16.90;59.00;;;;;;5050196;28;20084;-68
2023/06/10 04:36:38;;;;;;;7.53;5.00;;;16.80;59.20;;;;;;5014315;28;20050;-68
2023/06/10 04:39:05;;;;;;;6.43;4.45;;;16.80;59.30;;;;;;5013875;28;20042;-68
2023/06/10 04:41:31;;;;;;;6.45;5.00;;;16.90;59.50;;;;;;5018758;28;20489;-68
2023/06/10 04:43:57;;;;;;;8.68;5.45;;;16.80;59.50;;;;;;5050280;28;20072;-68
2023/06/10 04:46:24;;;;;;;9.40;5.57;;;16.90;59.70;;;;;;5018370;28;20101;-68
2023/06/10 04:48:49;;;;;;;7.50;5.22;;;16.90;59.80;;;;;;5029579;28;20053;-68
2023/06/10 04:51:16;;;;;;;8.57;5.82;;;16.90;60.10;;;;;;5014097;28;20080;-69
2023/06/10 04:53:42;;;;;;;9.35;5.57;;;16.90;60.40;;;;;;5013802;28;20564;-68
2023/06/10 04:56:08;;;;;;;9.18;5.20;;;16.80;60.70;;;;;;5013557;28;20045;-68
2023/06/10 04:58:34;;;;;;;9.70;5.00;;;16.80;61.00;;;;;;5013698;28;20103;-68
2023/06/10 05:00:59;;;;;;;7.70;5.13;;;16.80;61.20;;;;;;5020141;28;20117;-69
2023/06/10 05:03:26;;;;;;;7.63;5.35;;;16.80;61.40;;;;;;5013699;28;20046;-68
2023/06/10 05:05:52;;;;;;;10.50;5.45;;;16.80;61.80;;;;;;5013391;28;20493;-68
2023/06/10 05:08:18;;;;;;;7.53;5.30;;;16.80;62.10;;;;;;5014722;28;20052;-69
2023/06/10 05:10:43;;;;;;;8.77;4.93;;;16.80;62.40;;;;;;5014571;28;20539;-69
2023/06/10 05:13:09;;;;;;;9.35;5.45;;;16.90;62.60;;;;;;5009187;28;20041;-69
2023/06/10 05:15:35;;;;;;;9.75;5.70;;;16.90;62.80;;;;;;5021625;28;20061;-68
2023/06/10 05:18:02;;;;;;;9.10;5.40;;;17.10;63.00;;;;;;5013192;28;20046;-68
2023/06/10 05:20:28;;;;;;;10.55;5.55;;;17.20;63.10;;;;;;5014900;28;20041;-68
2023/06/10 05:22:54;;;;;;;9.27;5.20;;;17.50;62.70;;;;;;5014323;28;20042;-68
2023/06/10 05:25:20;;;;;;;7.93;4.72;;;17.70;62.40;;;;;;5014222;28;20041;-68
2023/06/10 05:27:46;;;;;;;11.35;5.55;;;18.00;62.10;;;;;;5010619;28;20046;-68
2023/06/10 05:30:12;;;;;;;8.75;5.60;;;18.20;61.40;;;;;;5010066;28;20048;-68
2023/06/10 05:32:38;;;;;;;10.07;5.10;;;18.50;60.80;;;;;;5026193;28;20046;-68
2023/06/10 05:35:04;;;;;;;7.75;5.18;;;18.80;59.90;;;;;;5032652;28;20084;-68
2023/06/10 05:37:30;;;;;;;10.55;5.70;;;19.00;59.10;;;;;;5033451;28;20045;-68
2023/06/10 05:39:55;;;;;;;9.35;5.18;;;19.30;58.90;;;;;;5030812;28;20045;-68
2023/06/10 05:42:21;;;;;;;7.63;4.50;;;19.50;58.70;;;;;;5033772;28;20041;-69
2023/06/10 05:44:47;;;;;;;11.88;5.38;;;19.70;58.70;;;;;;5021686;28;20079;-69
2023/06/10 05:47:13;;;;;;;8.55;5.75;;;19.90;57.90;;;;;;5024839;28;20052;-69
2023/06/10 05:49:38;;;;;;;8.38;5.47;;;20.10;57.20;;;;;;5026335;28;20128;-68
2023/06/10 05:52:04;;;;;;;10.23;5.03;;;20.20;56.60;;;;;;5048738;28;20075;-69
2023/06/10 05:54:30;;;;;;;8.63;5.35;;;20.30;56.30;;;;;;5032482;28;20454;-68
2023/06/10 05:56:56;;;;;;;9.48;5.28;;;20.40;55.90;;;;;;5032166;28;20050;-69
2023/06/10 05:59:22;;;;;;;8.73;4.78;;;20.40;56.00;;;;;;5022260;28;20123;-69
2023/06/10 06:01:49;;;;;;;9.82;4.65;;;20.40;55.60;;;;;;5019905;28;20045;-69
2023/06/10 06:04:16;;;;;;;9.07;4.78;;;20.50;55.70;;;;;;5021883;28;20490;-69
2023/06/10 06:06:41;;;;;;;6.47;4.18;;;20.60;56.00;;;;;;5030346;28;20408;-69
2023/06/10 06:09:07;;;;;;;10.77;5.05;;;20.80;55.50;;;;;;5022290;28;20050;-68
2023/06/10 06:11:34;;;;;;;8.82;5.07;;;21.00;54.70;;;;;;5024394;28;20404;-68
2023/06/10 06:13:59;;;;;;;7.95;5.25;;;21.10;54.30;;;;;;5022637;28;20056;-68
2023/06/10 06:16:25;;;;;;;6.95;4.00;;;21.20;54.50;;;;;;5012109;28;20625;-68
2023/06/10 06:18:51;;;;;;;8.40;4.25;;;21.30;54.30;;;;;;5019010;28;20038;-69
2023/06/10 06:21:16;;;;;;;10.15;4.07;;;21.50;54.20;;;;;;5030652;28;20037;-68
2023/06/10 06:23:42;;;;;;;7.38;4.07;;;21.70;54.00;;;;;;5012414;28;20119;-69
2023/06/10 06:26:08;;;;;;;7.45;4.40;;;22.00;53.60;;;;;;5012466;28;20046;-68
2023/06/10 06:28:34;;;;;;;10.40;4.63;;;22.20;52.90;;;;;;5013455;28;20552;-69
2023/06/10 06:30:59;;;;;;;8.10;4.65;;;22.30;52.30;;;;;;5011825;28;20041;-68
2023/06/10 06:33:26;;;;;;;9.13;4.47;;;22.30;52.00;;;;;;5023823;28;20037;-70
2023/06/10 06:35:52;;;;;;;8.13;4.65;;;22.40;51.70;;;;;;5026686;28;20065;-70
2023/06/10 06:38:17;;;;;;;7.00;4.13;;;22.50;51.30;;;;;;5017283;28;20041;-70
2023/06/10 06:40:43;;;;;;;8.50;5.00;;;22.70;50.60;;;;;;5012007;28;20175;-70
2023/06/10 06:43:09;;;;;;;8.85;4.85;;;22.70;50.30;;;;;;5013086;28;20038;-70
2023/06/10 06:45:34;;;;;;;11.55;5.18;;;22.80;50.40;;;;;;5013128;28;20041;-70
2023/06/10 06:48:00;;;;;;;6.97;4.20;;;22.90;50.40;;;;;;5002394;28;20045;-70
2023/06/10 06:50:26;;;;;;;7.60;4.93;;;23.10;50.10;;;;;;5029723;28;20034;-70
2023/06/10 06:52:51;;;;;;;7.35;4.00;;;23.30;49.60;;;;;;5018003;28;20116;-70
2023/06/10 06:55:17;;;;;;;9.27;4.38;;;23.40;49.20;;;;;;5028670;28;20112;-70
2023/06/10 06:57:43;;;;;;;6.60;3.95;;;23.50;48.70;;;;;;5024166;28;20093;-69
2023/06/10 07:00:10;;;;;;;6.47;4.40;;;23.60;47.90;;;;;;5011641;28;20056;-70
2023/06/10 07:02:35;;;;;;;6.72;3.78;;;23.60;47.90;;;;;;4996871;28;20042;-70
2023/06/10 07:05:03;;;;;;;5.82;4.13;;;23.70;47.70;;;;;;5028942;28;20074;-70
2023/06/10 07:07:28;;;;;;;5.88;4.03;;;23.80;47.50;;;;;;5030893;28;20447;-70
2023/06/10 07:09:54;;;;;;;8.25;4.45;;;23.90;47.90;;;;;;5023800;28;20046;-70
2023/06/10 07:12:23;;;;;;;6.50;3.70;;;24.10;47.40;;;;;;5011513;28;20038;-70
2023/06/10 07:14:51;;;;;;;5.05;3.53;;;24.30;46.90;;;;;;5008553;28;20444;-69
2023/06/10 07:17:17;;;;;;;6.35;3.58;;;24.50;46.80;;;;;;4999330;28;20085;-70
2023/06/10 07:19:44;;;;;;;8.65;3.92;;;24.80;46.90;;;;;;5021497;28;20041;-71
2023/06/10 07:22:10;;;;;;;6.53;3.38;;;25.00;45.20;;;;;;5017833;28;20366;-71
2023/06/10 07:24:35;;;;;;;9.27;4.63;;;25.10;43.90;;;;;;5011370;28;20113;-72
2023/06/10 07:27:01;;;;;;;6.97;3.47;;;25.00;43.80;;;;;;5028715;28;20057;-72
2023/06/10 07:29:27;;;;;;;7.07;3.92;;;25.00;44.70;;;;;;5032559;28;20048;-72
2023/06/10 07:31:53;;;;;;;7.88;3.55;;;25.10;45.10;;;;;;5030563;28;20045;-72
2023/06/10 07:34:19;;;;;;;7.10;3.85;;;25.20;45.50;;;;;;5038967;28;20405;-71
2023/06/10 07:36:44;;;;;;;6.07;3.38;;;25.30;44.50;;;;;;5017715;28;20524;-72
2023/06/10 07:39:11;;;;;;;6.30;3.55;;;25.50;43.90;;;;;;5011255;28;20129;-72
2023/06/10 07:41:37;;;;;;;7.13;3.75;;;25.60;44.30;;;;;;5019661;28;20076;-72
2023/06/10 07:44:03;;;;;;;6.10;3.42;;;25.70;43.60;;;;;;5015797;28;20176;-72
2023/06/10 07:46:28;;;;;;;7.00;3.70;;;25.80;43.20;;;;;;5019613;28;20038;-72
2023/06/10 07:48:54;;;;;;;6.38;3.58;;;26.00;43.40;;;;;;5032633;28;20038;-72
2023/06/10 07:51:21;;;;;;;5.72;2.97;;;26.10;43.10;;;;;;5016165;28;20564;-72
2023/06/10 07:53:47;;;;;;;7.10;3.42;;;26.30;43.10;;;;;;5008999;28;20460;-71
2023/06/10 07:56:13;;;;;;;7.15;3.63;;;26.40;42.60;;;;;;5014509;28;20125;-72
2023/06/10 07:58:39;;;;;;;8.30;3.60;;;26.60;42.40;;;;;;5015935;28;20034;-72
2023/06/10 08:01:04;;;;;;;6.72;3.47;;;26.80;41.10;;;;;;5016979;28;20034;-71
2023/06/10 08:03:30;;;;;;;8.32;3.75;;;26.90;41.10;;;;;;5029019;28;20038;-71
2023/06/10 08:05:56;;;;;;;6.03;3.45;;;27.00;41.50;;;;;;5021007;28;20519;-70
2023/06/10 08:08:21;;;;;;;4.93;3.58;;;27.10;41.70;;;;;;5019697;28;20076;-70
2023/06/10 08:10:49;;;;;;;6.95;3.42;;;27.30;41.40;;;;;;5018802;28;20053;-70
2023/06/10 08:13:15;;;;;;;5.38;3.40;;;27.40;41.00;;;;;;5011246;28;20066;-71
2023/06/10 08:15:40;;;;;;;6.97;3.58;;;27.50;40.40;;;;;;5017609;28;20493;-70
2023/06/10 08:18:06;;;;;;;5.82;3.20;;;27.50;39.60;;;;;;5014410;28;20042;-70
2023/06/10 08:20:32;;;;;;;5.93;3.58;;;27.50;40.10;;;;;;5028590;28;20107;-70
2023/06/10 08:22:58;;;;;;;6.55;3.38;;;27.60;39.80;;;;;;5033461;28;20048;-70
2023/06/10 08:25:23;;;;;;;6.10;3.33;;;27.60;39.50;;;;;;5029154;28;20029;-70
2023/06/10 08:27:50;;;;;;;7.05;3.22;;;27.50;39.50;;;;;;5033564;28;20072;-70
2023/06/10 08:30:16;;;;;;;7.63;3.22;;;27.40;39.40;;;;;;5018267;28;20486;-70
2023/06/10 08:32:48;;;;;;;4.88;3.38;;;27.40;38.90;;;;;;5020573;28;20096;-70
2023/06/10 08:35:13;;;;;;;5.47;3.30;;;27.50;38.50;;;;;;5024941;28;20049;-70
2023/06/10 08:37:39;;;;;;;5.05;3.33;;;27.60;38.40;;;;;;5024098;28;20060;-70
2023/06/10 08:40:05;;;;;;;6.53;3.00;;;27.60;38.20;;;;;;5014095;28;20050;-66
2023/06/10 08:42:39;;;;;;;6.93;3.53;;;27.60;38.20;;;;;;5018076;28;20038;-66
2023/06/10 08:45:07;;;;;;;6.18;4.00;;;27.60;38.30;;;;;;5020469;28;20041;-66
2023/06/10 08:47:36;;;;;;;5.85;3.00;;;27.70;38.40;;;;;;5015659;28;20133;-66
2023/06/10 08:50:04;;;;;;;6.32;3.63;;;27.70;38.40;;;;;;5013263;28;20054;-66
2023/06/10 08:52:36;;;;;;;6.43;3.33;;;27.90;38.50;;;;;;5018760;28;20095;-67
2023/06/10 08:55:12;;;;;;;5.25;2.90;;;28.00;38.10;;;;;;5014597;28;20392;-67
2023/06/10 08:57:38;;;;;;;7.90;3.55;;;28.00;37.90;;;;;;5013313;28;20049;-67
2023/06/10 09:00:05;;;;;;;7.97;3.88;;;28.00;38.00;;;;;;5014194;28;20125;-67
2023/06/10 09:02:35;;;;;;;5.10;3.67;;;28.00;38.10;;;;;;5026712;28;20572;-66
2023/06/10 09:05:01;;;;;;;6.43;3.03;;;28.10;38.10;;;;;;5028121;28;20038;-67
2023/06/10 09:07:31;;;;;;;7.90;4.32;;;28.20;37.60;;;;;;5017801;28;20069;-67
2023/06/10 09:09:58;;;;;;;6.68;3.60;;;28.20;37.00;;;;;;5027807;28;20038;-67
2023/06/10 09:12:24;;;;;;;8.23;3.95;;;28.10;37.20;;;;;;5013002;28;20125;-67
2023/06/10 09:14:50;;;;;;;8.30;4.07;;;28.10;37.70;;;;;;5029247;28;20048;-67
2023/06/10 09:17:17;;;;;;;6.78;3.85;;;28.10;38.20;;;;;;5037748;28;20038;-66
2023/06/10 09:19:45;;;;;;;7.20;4.70;;;28.10;38.30;;;;;;5023091;28;20107;-66
2023/06/10 09:22:11;;;;;;;7.57;4.20;;;28.10;38.40;;;;;;5014831;28;20067;-66
2023/06/10 09:24:37;;;;;;;7.90;4.10;;;28.10;38.50;;;;;;5018471;28;20038;-67
2023/06/10 09:27:07;;;;;;;6.05;4.00;;;28.10;39.10;;;;;;5029083;28;20095;-66
2023/06/10 09:30:06;;;;;;;6.18;3.92;;;28.10;38.80;;;;;;5025729;28;20120;-66
2023/06/10 09:32:40;;;;;;;6.50;3.88;;;28.20;39.30;;;;;;4974051;28;20064;-66
2023/06/10 09:35:10;;;;;;;6.38;3.83;;;28.20;39.30;;;;;;5016788;28;20116;-66
2023/06/10 09:37:38;;;;;;;6.53;3.90;;;28.30;39.50;;;;;;5018129;28;20099;-66
2023/06/10 09:40:06;;;;;;;6.35;3.85;;;28.40;39.10;;;;;;5013721;28;20038;-66
2023/06/10 09:42:38;;;;;;;7.30;4.38;;;28.40;39.30;;;;;;5014632;28;20046;-67
2023/06/10 09:45:05;;;;;;;7.65;4.40;;;28.40;38.80;;;;;;5020852;28;20485;-66
2023/06/10 09:47:31;;;;;;;6.43;3.60;;;28.40;38.70;;;;;;5021517;28;20104;-67
2023/06/10 09:49:56;;;;;;;5.75;3.67;;;28.40;39.40;;;;;;5006167;28;20432;-66
2023/06/10 09:52:26;;;;;;;5.47;3.83;;;28.50;38.80;;;;;;5028299;28;20049;-67
2023/06/10 09:55:02;;;;;;;7.65;4.15;;;28.60;38.20;;;;;;5025860;28;20041;-66
2023/06/10 09:57:35;;;;;;;6.63;4.07;;;28.70;37.50;;;;;;5019413;28;20129;-66
2023/06/10 10:00:05;;;;;;;5.93;3.90;;;28.70;37.30;;;;;;5023840;28;20083;-66
2023/06/10 10:02:31;;;;;;;7.32;3.35;;;28.70;37.30;;;;;;5012355;28;21716;-67
2023/06/10 10:05:04;;;;;;;4.88;3.38;;;28.80;37.70;;;;;;5014563;28;20038;-66
2023/06/10 10:07:29;;;;;;;5.78;3.78;;;28.80;37.70;;;;;;5014317;28;20049;-67
2023/06/10 10:09:55;;;;;;;5.03;3.55;;;28.90;37.60;;;;;;5041439;28;20052;-66
2023/06/10 10:12:21;;;;;;;4.55;3.50;;;29.00;37.20;;;;;;5012858;28;20037;-68
2023/06/10 10:14:47;;;;;;;8.95;3.97;;;29.10;37.50;;;;;;5020126;28;20117;-67
2023/06/10 10:17:15;;;;;;;8.13;4.18;;;29.20;37.60;;;;;;5025989;28;20037;-68
2023/06/10 10:19:48;;;;;;;5.32;3.30;;;29.30;36.40;;;;;;5018310;28;20045;-67
2023/06/10 10:22:29;;;;;;;5.40;3.50;;;29.30;36.60;;;;;;5017984;28;20056;-67
2023/06/10 10:25:03;;;;;;;6.70;3.30;;;29.30;36.60;;;;;;5021641;28;20104;-67
2023/06/10 10:27:35;;;;;;;5.65;4.00;;;29.30;36.00;;;;;;5019498;28;20450;-67
2023/06/10 10:30:08;;;;;;;3.67;3.03;;;29.30;35.40;;;;;;5018336;28;20416;-67
2023/06/10 10:33:03;;;;;;;5.53;3.47;;;29.20;35.30;;;;;;5025442;28;20187;-67
2023/06/10 10:35:31;;;;;;;5.60;3.17;;;29.20;35.70;;;;;;5013785;28;20065;-67
2023/06/10 10:37:56;;;;;;;4.93;3.00;;;29.10;35.00;;;;;;5011045;28;20049;-67
2023/06/10 10:40:24;;;;;;;6.40;3.08;;;29.20;35.40;;;;;;5012470;28;20330;-67
2023/06/10 10:42:51;;;;;;;7.13;3.33;;;29.40;35.70;;;;;;5008553;28;20047;-67
2023/06/10 10:45:17;;;;;;;4.10;2.83;;;29.50;34.80;;;;;;4991968;28;20070;-67
2023/06/10 10:47:45;;;;;;;6.05;3.03;;;29.60;34.90;;;;;;5003068;28;20052;-67
2023/06/10 10:50:18;;;;;;;5.00;3.05;;;29.70;33.80;;;;;;5032701;28;20041;-67
2023/06/10 10:52:54;;;;;;;5.78;3.75;;;29.80;34.50;;;;;;5012779;28;20096;-67
2023/06/10 10:55:20;;;;;;;6.90;3.15;;;29.90;34.10;;;;;;5044029;28;20500;-67
2023/06/10 10:57:55;;;;;;;3.95;2.85;;;30.00;33.90;;;;;;5030764;28;20061;-67
2023/06/10 11:00:35;;;;;;;5.13;3.10;;;30.10;33.80;;;;;;5031491;28;20041;-67
2023/06/10 11:03:03;;;;;;;5.07;2.72;;;30.20;34.20;;;;;;5031593;28;20454;-67
2023/06/10 11:05:37;;;;;;;5.47;3.47;;;30.30;34.00;;;;;;5031493;28;20504;-67
2023/06/10 11:08:02;;;;;;;;;;;30.40;33.00;;;;;;5025564;28;20432;-67
2023/06/10 11:10:33;;;;;;;4.85;2.92;;;30.40;33.50;;;;;;5027369;28;20003;-67
2023/06/10 11:13:00;;;;;;;5.32;2.92;;;30.50;33.00;;;;;;5014820;28;20045;-67
2023/06/10 11:15:29;;;;;;;7.00;3.22;;;30.50;33.30;;;;;;5032533;28;20509;-66
2023/06/10 11:18:10;;;;;;;4.45;3.13;;;30.60;32.80;;;;;;5013587;28;20057;-66
2023/06/10 11:20:48;;;;;;;5.45;3.25;;;30.70;32.40;;;;;;5016670;28;20042;-67
2023/06/10 11:23:31;;;;;;;4.82;2.92;;;30.70;32.10;;;;;;5015476;28;20046;-67
2023/06/10 11:26:18;;;;;;;3.42;2.60;;;30.70;32.90;;;;;;5027886;28;20045;-67
2023/06/10 11:28:47;;;;;;;4.88;2.92;;;30.80;32.00;;;;;;5034903;28;20053;-66
2023/06/10 11:31:29;;;;;;;5.68;3.17;;;30.70;32.00;;;;;;5034930;28;20570;-67
2023/06/10 11:34:06;;;;;;;9.40;4.10;;;30.80;31.90;;;;;;5034800;28;20057;-66
2023/06/10 11:36:34;;;;;;;4.70;3.00;;;30.80;31.90;;;;;;5034942;28;20463;-66
2023/06/10 11:39:03;;;;;;;4.20;2.88;;;30.80;31.60;;;;;;5034994;28;20050;-66
2023/06/10 11:41:30;;;;;;;4.32;3.10;;;30.70;31.60;;;;;;5015566;28;20042;-67
2023/06/10 11:44:00;;;;;;;4.75;3.13;;;30.70;30.70;;;;;;5016001;28;20481;-67
2023/06/10 11:46:27;;;;;;;5.05;3.25;;;30.70;31.00;;;;;;5014863;28;20046;-67
2023/06/10 11:48:58;;;;;;;4.85;2.97;;;30.70;31.10;;;;;;5015118;28;20054;-67
2023/06/10 11:51:29;;;;;;;3.88;2.95;;;30.70;31.90;;;;;;5014718;28;20054;-67
2023/06/10 11:53:55;;;;;;;6.00;2.97;;;30.70;30.50;;;;;;5019290;28;20060;-66
2023/06/10 11:56:22;;;;;;;3.60;2.90;;;30.70;31.50;;;;;;5034455;28;20481;-66
2023/06/10 11:59:08;;;;;;;5.07;2.83;;;30.80;30.90;;;;;;5035745;28;20030;-66
2023/06/10 12:01:41;;;;;;;3.83;2.72;;;30.80;31.30;;;;;;5032637;28;20073;-66
2023/06/10 12:04:08;;;;;;;;;;;30.90;30.90;;;;;;5033887;28;20435;-66
2023/06/10 12:06:43;;;;;;;6.05;2.90;;;31.00;31.70;;;;;;5016812;28;19917;-66
2023/06/10 12:09:18;;;;;;;3.47;2.53;;;31.00;30.80;;;;;;5014492;28;20046;-66
2023/06/10 12:11:44;;;;;;;4.47;2.97;;;31.10;30.10;;;;;;5027288;28;20088;-67
2023/06/10 12:14:10;;;;;;;5.22;2.40;;;31.20;30.90;;;;;;5050492;28;20128;-67
2023/06/10 12:16:36;;;;;;;5.20;2.97;;;31.20;30.00;;;;;;5050529;28;20124;-67
2023/06/10 12:19:06;;;;;;;3.80;2.55;;;31.30;29.80;;;;;;5020816;28;20053;-67
2023/06/10 12:21:33;;;;;;;3.65;2.28;;;31.40;29.90;;;;;;5015413;28;20046;-68
2023/06/10 12:24:07;;;;;;;3.60;2.53;;;31.50;29.70;;;;;;5014156;28;20115;-67
2023/06/10 12:26:40;;;;;;;3.55;2.45;;;31.50;29.30;;;;;;5014124;28;20053;-67
2023/06/10 12:29:24;;;;;;;3.83;2.40;;;31.50;29.10;;;;;;5030618;28;20118;-67
2023/06/10 12:31:54;;;;;;;3.42;2.40;;;31.60;29.80;;;;;;5050483;28;20049;-67
2023/06/10 12:34:20;;;;;;;3.45;2.30;;;31.50;29.00;;;;;;5030399;28;20058;-67
2023/06/10 12:36:49;;;;;;;4.05;2.55;;;31.50;28.60;;;;;;5013793;28;20052;-67
2023/06/10 12:39:15;;;;;;;3.10;2.30;;;31.50;28.70;;;;;;4997627;28;20073;-68
2023/06/10 12:41:46;;;;;;;4.05;2.53;;;31.50;29.00;;;;;;5013783;28;20204;-66
2023/06/10 12:44:12;;;;;;;4.97;2.72;;;31.50;28.70;;;;;;5021788;28;20117;-67
2023/06/10 12:46:38;;;;;;;4.28;2.45;;;31.50;28.60;;;;;;5016851;28;20128;-67
2023/06/10 12:49:04;;;;;;;3.17;1.98;;;31.50;29.10;;;;;;5033565;28;20117;-67